OMSJ/SHJ METAR and TAF weather

Enter ICAO airport designator
Station Type Date Time Source
OMSJ METAR 2021/07/26 17:00 UTC NOAA

OMSJ 261700Z 03001KT CAVOK 37/19 Q0996 NOSIG


Station Type Date Time Source
OMSJ Decoded METAR 2021/07/26 17:00 UTC NOAA

Sharjah International Airport, United Arab Emirates (OMSJ) 25-20N 055-31E 33M
Jul 26, 2021 - 01:00 PM EDT / 2021.07.26 1700 UTC
Wind: from the NNE (030 degrees) at 1 MPH (1 KT):0
Visibility: greater than 7 mile(s):0
Temperature: 98 F (37 C)
Heat index: 101.1 F (38.4 C):1
Dew Point: 66 F (19 C)
Relative Humidity: 34%
Pressure (altimeter): 29.41 in. Hg (0996 hPa)
ob: OMSJ 261700Z 03001KT CAVOK 37/19 Q0996 NOSIG
cycle: 17

Station Type Date Time Source
OMSJ TAF 2021/07/26 18:02 UTC NOAA

TAF OMSJ 261700Z 2618/2800 VRB02KT 8000 NSC
BECMG 2707/2709 30012KT
BECMG 2715/2717 15005KT

Example: see airport list